Time;durP1;ratioP1;P1;durP2;ratioP2;P2;SDS_P1;SDS_P2;PMS_P1;PMS_P2;Temp;Humidity;BMP_temperature;BMP_pressure;BME280_temperature;BME280_humidity;BME280_pressure;Samples;Min_cycle;Max_cycle;Signal;HPM_P1;HPM_P2
2022/05/10 00:00:09;;;;;;;5.60;4.40;;;13.40;99.90;;;;;;5064419;28;20197;-80
2022/05/10 00:02:37;;;;;;;5.23;3.50;;;13.40;99.90;;;;;;5064394;28;20197;-78
2022/05/10 00:05:06;;;;;;;7.60;4.17;;;13.40;99.90;;;;;;5046920;28;20218;-79
2022/05/10 00:07:35;;;;;;;8.03;4.43;;;13.40;99.90;;;;;;5057359;28;20201;-80
2022/05/10 00:10:04;;;;;;;11.10;6.17;;;13.40;99.90;;;;;;5063753;28;20335;-82
2022/05/10 00:12:31;;;;;;;10.63;5.00;;;13.40;99.90;;;;;;5065796;28;20232;-80
2022/05/10 00:14:58;;;;;;;8.77;4.70;;;13.50;99.90;;;;;;5067592;28;20197;-80
2022/05/10 00:17:30;;;;;;;6.20;4.27;;;13.50;99.90;;;;;;5067493;28;20222;-79
2022/05/10 00:19:58;;;;;;;8.30;4.60;;;13.60;99.90;;;;;;5067403;28;20192;-79
2022/05/10 00:22:25;;;;;;;10.50;5.10;;;13.60;99.90;;;;;;5067363;28;20925;-80
2022/05/10 00:24:52;;;;;;;9.50;5.20;;;13.60;99.90;;;;;;5066988;28;20216;-80
2022/05/10 00:27:19;;;;;;;11.33;5.50;;;13.60;99.90;;;;;;5066261;28;20571;-80
2022/05/10 00:29:46;;;;;;;9.43;5.13;;;13.60;99.90;;;;;;5066791;28;20209;-80
2022/05/10 00:32:12;;;;;;;13.37;5.00;;;13.60;99.90;;;;;;5066112;28;20240;-79
2022/05/10 00:34:39;;;;;;;7.53;4.47;;;13.60;99.90;;;;;;5066395;28;20208;-80
2022/05/10 00:37:08;;;;;;;6.63;4.10;;;13.60;99.90;;;;;;5065892;28;20209;-80
2022/05/10 00:39:36;;;;;;;7.57;4.83;;;13.60;99.90;;;;;;5066403;28;20320;-79
2022/05/10 00:42:08;;;;;;;9.13;4.73;;;13.60;99.90;;;;;;5066951;28;20277;-79
2022/05/10 00:44:41;;;;;;;9.10;5.00;;;13.70;99.90;;;;;;5066245;28;20205;-79
2022/05/10 00:47:14;;;;;;;9.63;4.80;;;13.70;99.90;;;;;;5066376;28;21002;-79
2022/05/10 00:49:47;;;;;;;7.20;4.27;;;13.70;99.90;;;;;;5067547;28;20205;-81
2022/05/10 00:52:22;;;;;;;6.87;4.63;;;13.70;99.90;;;;;;5066313;28;20213;-79
2022/05/10 00:54:59;;;;;;;8.97;5.50;;;13.80;99.90;;;;;;5066524;28;20272;-80
2022/05/10 00:57:31;;;;;;;7.43;4.87;;;13.80;99.90;;;;;;5065729;28;20208;-80
2022/05/10 01:00:05;;;;;;;10.60;5.53;;;13.80;99.90;;;;;;5046902;28;20229;-79
2022/05/10 01:02:40;;;;;;;9.37;5.60;;;13.90;99.90;;;;;;5046365;28;20212;-80
2022/05/10 01:05:20;;;;;;;8.20;5.00;;;13.90;99.90;;;;;;5046799;28;20608;-80
2022/05/10 01:07:55;;;;;;;9.93;5.57;;;13.90;99.90;;;;;;5046543;28;20190;-79
2022/05/10 01:10:34;;;;;;;9.97;5.70;;;13.90;99.90;;;;;;5050260;28;20248;-80
2022/05/10 01:13:10;;;;;;;12.63;6.53;;;13.90;99.90;;;;;;5066975;28;20236;-80
2022/05/10 01:15:41;;;;;;;11.87;5.43;;;13.90;99.90;;;;;;5065611;28;20225;-80
2022/05/10 01:18:07;;;;;;;12.73;6.77;;;13.90;99.90;;;;;;5066467;28;20217;-80
2022/05/10 01:20:42;;;;;;;15.77;6.00;;;13.90;99.90;;;;;;5060147;28;20863;-80
2022/05/10 01:23:42;;;;;;;12.73;5.97;;;14.00;99.90;;;;;;5045535;28;20194;-80
2022/05/10 01:26:19;;;;;;;9.60;5.30;;;13.90;99.90;;;;;;5046000;28;20210;-79
2022/05/10 01:28:51;;;;;;;11.60;5.93;;;14.00;99.90;;;;;;5048517;28;20204;-80
2022/05/10 01:31:24;;;;;;;11.17;6.47;;;13.90;99.90;;;;;;5066310;28;20871;-79
2022/05/10 01:33:54;;;;;;;14.37;6.37;;;13.90;99.90;;;;;;5062507;28;20218;-79
2022/05/10 01:36:31;;;;;;;9.57;5.57;;;14.00;99.90;;;;;;5045600;28;20241;-80
2022/05/10 01:39:04;;;;;;;10.63;5.83;;;13.90;99.90;;;;;;5046316;28;20217;-79
2022/05/10 01:41:42;;;;;;;9.80;6.10;;;13.90;99.90;;;;;;5045699;28;20206;-80
2022/05/10 01:44:18;;;;;;;8.20;5.07;;;13.90;99.90;;;;;;5064138;28;20193;-80
2022/05/10 01:46:47;;;;;;;8.70;5.27;;;13.90;99.90;;;;;;5056117;28;20193;-80
2022/05/10 01:49:24;;;;;;;15.37;5.90;;;13.90;99.90;;;;;;5045779;28;20202;-79
2022/05/10 01:51:55;;;;;;;8.27;5.27;;;13.90;99.90;;;;;;5045034;28;20602;-79
2022/05/10 01:54:56;;;;;;;8.73;5.80;;;13.90;99.90;;;;;;5055254;28;20238;-79
2022/05/10 01:57:23;;;;;;;9.87;5.73;;;14.00;99.90;;;;;;5064737;28;20201;-80
2022/05/10 01:59:54;;;;;;;10.47;6.57;;;14.00;99.90;;;;;;5065709;28;20211;-80
2022/05/10 02:02:25;;;;;;;9.53;5.10;;;14.00;99.90;;;;;;5065014;28;20477;-80
2022/05/10 02:04:56;;;;;;;10.57;5.87;;;14.00;99.90;;;;;;5065557;28;20202;-80
2022/05/10 02:07:26;;;;;;;9.97;6.27;;;14.00;99.90;;;;;;5066110;28;20201;-80
2022/05/10 02:10:00;;;;;;;10.70;6.47;;;14.10;99.90;;;;;;5065334;28;20205;-80
2022/05/10 02:12:31;;;;;;;10.80;6.40;;;14.10;99.90;;;;;;5064068;28;20229;-81
2022/05/10 02:15:06;;;;;;;8.43;5.90;;;14.10;99.90;;;;;;5064850;28;20217;-80
2022/05/10 02:17:38;;;;;;;11.53;5.87;;;14.20;99.90;;;;;;5065678;28;20497;-79
2022/05/10 02:20:09;;;;;;;9.73;5.73;;;14.20;99.90;;;;;;5063864;28;20197;-79
2022/05/10 02:22:41;;;;;;;11.63;5.93;;;14.20;99.90;;;;;;5046023;28;20194;-80
2022/05/10 02:25:12;;;;;;;12.10;6.03;;;14.20;99.90;;;;;;5045088;28;20198;-81
2022/05/10 02:27:42;;;;;;;11.13;6.73;;;14.20;99.90;;;;;;5045676;28;20205;-79
2022/05/10 02:30:14;;;;;;;8.70;6.10;;;14.30;99.90;;;;;;5045095;28;20201;-80
2022/05/10 02:35:33;;;;;;;9.27;5.73;;;14.20;99.90;;;;;;5064745;28;20231;-80
2022/05/10 02:38:01;;;;;;;8.73;5.97;;;14.20;99.90;;;;;;5065000;28;20250;-80
2022/05/10 02:40:27;;;;;;;12.50;6.97;;;14.20;99.90;;;;;;5064485;28;20209;-80
2022/05/10 02:42:54;;;;;;;10.17;6.03;;;14.20;99.90;;;;;;5065060;28;20200;-78
2022/05/10 02:45:23;;;;;;;11.73;6.40;;;14.20;99.90;;;;;;5064929;28;20664;-80
2022/05/10 02:47:51;;;;;;;13.13;6.43;;;14.20;99.90;;;;;;5064968;28;20201;-79
2022/05/10 02:50:24;;;;;;;7.83;6.30;;;14.20;99.90;;;;;;5054965;28;20201;-80
2022/05/10 02:52:51;;;;;;;12.93;6.80;;;14.20;99.90;;;;;;5065636;28;20589;-79
2022/05/10 02:55:23;;;;;;;8.37;6.80;;;14.20;99.90;;;;;;5063462;28;20504;-81
2022/05/10 02:57:52;;;;;;;10.93;6.37;;;14.20;99.90;;;;;;5064932;28;20189;-80
2022/05/10 03:00:22;;;;;;;9.20;6.07;;;14.20;99.90;;;;;;5050238;28;20256;-79
2022/05/10 03:02:53;;;;;;;12.37;7.43;;;14.20;99.90;;;;;;5045709;28;20217;-80
2022/05/10 03:05:20;;;;;;;9.23;5.87;;;14.30;99.90;;;;;;5045097;28;20213;-79
2022/05/10 03:07:46;;;;;;;12.70;7.33;;;14.30;99.90;;;;;;5044331;28;20201;-81
2022/05/10 03:10:13;;;;;;;10.13;6.73;;;14.30;99.90;;;;;;5044475;28;20256;-81
2022/05/10 03:12:40;;;;;;;13.10;7.03;;;14.40;99.90;;;;;;5045449;28;20598;-80
2022/05/10 03:15:08;;;;;;;10.30;6.60;;;14.40;99.90;;;;;;5044381;28;20247;-79
2022/05/10 03:17:36;;;;;;;9.90;5.57;;;14.40;99.90;;;;;;5056610;28;20204;-79
2022/05/10 03:20:03;;;;;;;10.73;6.30;;;14.40;99.90;;;;;;5064375;28;20201;-79
2022/05/10 03:22:30;;;;;;;7.77;6.00;;;14.40;99.90;;;;;;5059660;28;20202;-80
2022/05/10 03:24:57;;;;;;;11.40;6.47;;;14.40;99.90;;;;;;5041539;23;20238;-80
2022/05/10 03:27:24;;;;;;;10.33;6.00;;;14.50;99.90;;;;;;5024079;28;20216;-79
2022/05/10 03:29:51;;;;;;;8.87;6.53;;;14.40;99.90;;;;;;5024882;28;20202;-79
2022/05/10 03:32:18;;;;;;;7.73;5.47;;;14.50;99.90;;;;;;5024169;28;20213;-81
2022/05/10 03:34:55;;;;;;;8.37;6.27;;;14.50;99.90;;;;;;5024841;28;20217;-80
2022/05/10 03:37:22;;;;;;;9.23;5.90;;;14.50;99.90;;;;;;5011538;28;20230;-80
2022/05/10 03:39:48;;;;;;;10.37;6.20;;;14.50;99.90;;;;;;5004720;28;20195;-79
2022/05/10 03:42:15;;;;;;;10.33;6.13;;;14.50;99.90;;;;;;5004088;28;20265;-79
2022/05/10 03:44:42;;;;;;;8.40;6.00;;;14.60;99.90;;;;;;5006045;28;20214;-81
2022/05/10 03:47:10;;;;;;;8.97;5.90;;;14.60;99.90;;;;;;5007504;28;20203;-80
2022/05/10 03:49:37;;;;;;;9.97;6.17;;;14.60;99.90;;;;;;5017927;28;20871;-80
2022/05/10 03:52:06;;;;;;;11.63;6.53;;;14.70;99.90;;;;;;5028356;28;20198;-80
2022/05/10 03:54:33;;;;;;;12.40;6.60;;;14.70;99.90;;;;;;5028625;28;20261;-80
2022/05/10 03:57:00;;;;;;;10.30;6.17;;;14.80;99.90;;;;;;5022833;28;20219;-79
2022/05/10 03:59:27;;;;;;;6.93;5.63;;;14.80;99.90;;;;;;5021440;28;20207;-80
2022/05/10 04:01:53;;;;;;;11.30;6.43;;;14.90;99.90;;;;;;5028693;28;20289;-79
2022/05/10 04:04:20;;;;;;;10.65;5.82;;;14.90;99.90;;;;;;5028176;28;20206;-80
2022/05/10 04:06:47;;;;;;;9.53;6.30;;;15.00;99.90;;;;;;5010150;28;20215;-81
2022/05/10 04:09:16;;;;;;;10.00;5.87;;;15.00;99.90;;;;;;5008248;28;20215;-80
2022/05/10 04:11:44;;;;;;;9.50;6.23;;;15.10;99.90;;;;;;5007336;28;20233;-79
2022/05/10 04:14:11;;;;;;;10.67;5.40;;;15.10;99.90;;;;;;5007547;28;20654;-79
2022/05/10 04:16:38;;;;;;;9.83;5.90;;;15.10;99.90;;;;;;5007875;28;20342;-79
2022/05/10 04:19:04;;;;;;;9.30;5.93;;;15.10;99.90;;;;;;5007442;28;20206;-80
2022/05/10 04:21:31;;;;;;;9.83;6.60;;;15.20;99.90;;;;;;5008450;28;20208;-80
2022/05/10 04:23:58;;;;;;;12.43;6.13;;;15.20;99.90;;;;;;5023674;23;21351;-80
2022/05/10 04:26:26;;;;;;;8.60;6.25;;;15.20;99.90;;;;;;5067646;28;20201;-79
2022/05/10 04:28:54;;;;;;;9.27;6.57;;;15.20;99.90;;;;;;5060906;28;20210;-80
2022/05/10 04:31:21;;;;;;;9.40;6.97;;;15.20;99.90;;;;;;5047203;28;20202;-80
2022/05/10 04:33:48;;;;;;;7.85;6.72;;;15.30;99.90;;;;;;5047031;28;20225;-80
2022/05/10 04:36:14;;;;;;;10.75;7.75;;;15.30;99.90;;;;;;5047048;28;20213;-80
2022/05/10 04:38:43;;;;;;;9.50;6.67;;;15.30;99.90;;;;;;5047187;28;20210;-80
2022/05/10 04:41:27;;;;;;;9.97;6.93;;;15.40;99.90;;;;;;5046945;28;20610;-79
2022/05/10 04:43:57;;;;;;;10.47;7.77;;;15.40;99.90;;;;;;5046541;28;20618;-78
2022/05/10 04:46:24;;;;;;;10.10;6.60;;;15.40;99.90;;;;;;5046209;28;20213;-80
2022/05/10 04:48:51;;;;;;;8.43;6.57;;;15.50;99.90;;;;;;5046743;28;20592;-80
2022/05/10 04:51:18;;;;;;;13.03;7.50;;;15.50;99.90;;;;;;5046759;28;20198;-80
2022/05/10 04:53:46;;;;;;;8.57;6.80;;;15.50;99.90;;;;;;5045077;28;20221;-79
2022/05/10 04:56:12;;;;;;;8.13;6.93;;;15.50;99.90;;;;;;5046891;28;20210;-80
2022/05/10 04:58:39;;;;;;;10.00;7.00;;;15.60;99.90;;;;;;5046452;28;20206;-79
2022/05/10 05:01:09;;;;;;;15.32;7.93;;;15.60;99.90;;;;;;5046347;28;20523;-79
2022/05/10 05:03:36;;;;;;;15.32;7.40;;;15.60;99.90;;;;;;5047155;28;20298;-80
2022/05/10 05:06:05;;;;;;;12.30;7.97;;;15.60;99.90;;;;;;5047462;28;20209;-79
2022/05/10 05:08:31;;;;;;;11.03;8.03;;;15.70;99.90;;;;;;5046290;28;20202;-79
2022/05/10 05:10:58;;;;;;;11.17;8.17;;;15.80;99.90;;;;;;5045807;28;20650;-82
2022/05/10 05:13:26;;;;;;;12.53;7.73;;;15.90;99.90;;;;;;5047468;28;20218;-80
2022/05/10 05:15:53;;;;;;;14.10;7.50;;;15.90;99.90;;;;;;5045965;28;20234;-80
2022/05/10 05:18:22;;;;;;;11.07;7.07;;;16.00;99.90;;;;;;5047088;28;20293;-80
2022/05/10 05:20:50;;;;;;;11.43;7.40;;;16.00;99.90;;;;;;5047221;28;20305;-80
2022/05/10 05:23:21;;;;;;;13.63;8.43;;;16.00;99.90;;;;;;5047613;28;20194;-79
2022/05/10 05:25:48;;;;;;;15.63;8.87;;;16.00;99.90;;;;;;5046486;28;20533;-81
2022/05/10 05:28:15;;;;;;;9.73;7.32;;;16.00;99.90;;;;;;5050711;28;20585;-79
2022/05/10 05:30:44;;;;;;;12.47;8.00;;;16.00;99.90;;;;;;5048653;28;20288;-78
2022/05/10 05:33:11;;;;;;;16.67;8.47;;;16.10;99.90;;;;;;5046101;28;20202;-80
2022/05/10 05:35:40;;;;;;;13.50;9.23;;;16.10;99.90;;;;;;5044647;28;20492;-79
2022/05/10 05:38:07;;;;;;;15.77;8.38;;;16.20;99.90;;;;;;5046385;28;20205;-79
2022/05/10 05:40:35;;;;;;;14.07;7.93;;;16.30;99.90;;;;;;5045996;28;20213;-79
2022/05/10 05:43:02;;;;;;;12.60;7.57;;;16.30;99.90;;;;;;5045016;28;20216;-79
2022/05/10 05:45:29;;;;;;;13.38;8.10;;;16.40;99.90;;;;;;5046117;28;20202;-80
2022/05/10 05:47:56;;;;;;;15.80;7.93;;;16.40;99.90;;;;;;5045402;28;20630;-79
2022/05/10 05:50:25;;;;;;;14.23;7.93;;;16.50;99.90;;;;;;5045148;28;20209;-79
2022/05/10 05:52:54;;;;;;;12.98;7.88;;;16.50;99.90;;;;;;5045578;28;20194;-80
2022/05/10 05:55:21;;;;;;;15.27;8.10;;;16.70;99.90;;;;;;5045302;28;20232;-80
2022/05/10 05:57:48;;;;;;;14.90;7.95;;;16.80;99.90;;;;;;5045436;28;20217;-78
2022/05/10 06:00:18;;;;;;;15.02;7.80;;;16.90;99.90;;;;;;5046229;28;20503;-79
2022/05/10 06:02:45;;;;;;;14.13;7.15;;;16.90;99.90;;;;;;5046215;28;20297;-79
2022/05/10 06:05:12;;;;;;;13.30;7.35;;;17.00;99.90;;;;;;5045239;28;20198;-79
2022/05/10 06:07:39;;;;;;;16.63;7.20;;;17.00;99.90;;;;;;5046102;28;20210;-80
2022/05/10 06:10:09;;;;;;;14.75;7.53;;;17.10;99.90;;;;;;5044388;28;20231;-79
2022/05/10 06:12:37;;;;;;;12.90;6.72;;;17.20;99.90;;;;;;5045504;28;20594;-80
2022/05/10 06:15:08;;;;;;;15.82;6.75;;;17.30;99.90;;;;;;5044797;28;20245;-78
2022/05/10 06:17:35;;;;;;;11.65;6.95;;;17.30;99.90;;;;;;5043846;28;20194;-79
2022/05/10 06:20:04;;;;;;;13.82;7.07;;;17.40;99.90;;;;;;5044751;28;20210;-79
2022/05/10 06:22:31;;;;;;;15.98;7.60;;;17.40;99.90;;;;;;5045044;28;20205;-81
2022/05/10 06:24:58;;;;;;;12.35;7.45;;;17.50;99.90;;;;;;5043959;28;20611;-79
2022/05/10 06:27:26;;;;;;;13.10;7.18;;;17.60;99.90;;;;;;5045073;28;20715;-79
2022/05/10 06:29:53;;;;;;;14.75;7.47;;;17.60;99.90;;;;;;5044774;28;20201;-78
2022/05/10 06:32:22;;;;;;;16.63;7.43;;;17.70;99.90;;;;;;5063418;28;20215;-79
2022/05/10 06:34:50;;;;;;;12.88;7.60;;;17.70;99.90;;;;;;5064894;28;20229;-79
2022/05/10 06:40:10;;;;;;;14.10;7.60;;;17.70;99.90;;;;;;5043887;28;20205;-79
2022/05/10 06:42:39;;;;;;;15.27;8.43;;;17.80;99.90;;;;;;5044109;28;20197;-80
2022/05/10 06:45:10;;;;;;;12.30;7.43;;;17.80;99.90;;;;;;5044118;28;20213;-79
2022/05/10 06:47:38;;;;;;;18.02;8.27;;;17.90;99.90;;;;;;5044681;28;20201;-79
2022/05/10 06:50:06;;;;;;;11.75;7.78;;;17.90;99.90;;;;;;5044463;28;20586;-78
2022/05/10 06:52:33;;;;;;;14.05;8.40;;;18.00;99.90;;;;;;5044424;28;20201;-79
2022/05/10 06:54:59;;;;;;;12.65;7.13;;;18.10;99.90;;;;;;5044390;28;20264;-79
2022/05/10 06:57:26;;;;;;;13.10;6.90;;;18.20;99.90;;;;;;5044452;28;20845;-79
2022/05/10 06:59:55;;;;;;;15.02;8.07;;;18.30;99.90;;;;;;5043747;28;20696;-78
2022/05/10 07:02:23;;;;;;;17.42;7.95;;;18.30;99.90;;;;;;5044383;28;20665;-80
2022/05/10 07:04:49;;;;;;;13.57;7.80;;;18.40;99.90;;;;;;5043949;28;20295;-78
2022/05/10 07:07:16;;;;;;;11.80;7.65;;;18.50;99.90;;;;;;5043791;28;20912;-81
2022/05/10 07:09:43;;;;;;;13.05;7.18;;;18.60;99.90;;;;;;5044974;28;20205;-80
2022/05/10 07:12:10;;;;;;;12.27;6.90;;;18.70;99.90;;;;;;5043449;28;20691;-78
2022/05/10 07:14:37;;;;;;;16.63;7.38;;;18.70;99.90;;;;;;5043281;28;20240;-78
2022/05/10 07:17:05;;;;;;;11.90;6.82;;;18.80;99.90;;;;;;5044230;28;20228;-78
2022/05/10 07:19:32;;;;;;;13.32;6.53;;;18.90;99.90;;;;;;5044096;28;20202;-80
2022/05/10 07:22:00;;;;;;;17.73;7.75;;;19.00;99.90;;;;;;5043455;28;20297;-80
2022/05/10 07:24:27;;;;;;;14.98;7.22;;;19.10;99.90;;;;;;5043051;28;20237;-81
2022/05/10 07:26:54;;;;;;;15.02;7.35;;;19.10;99.90;;;;;;5051365;28;20904;-80
2022/05/10 07:29:22;;;;;;;11.85;7.45;;;19.20;99.90;;;;;;5056862;28;20209;-81
2022/05/10 07:31:49;;;;;;;11.73;6.15;;;19.20;99.90;;;;;;5052742;22;20221;-80
2022/05/10 07:34:18;;;;;;;11.20;6.72;;;19.30;99.90;;;;;;5040829;28;20241;-79
2022/05/10 07:36:45;;;;;;;11.90;6.03;;;19.40;99.90;;;;;;5037172;28;20526;-78
2022/05/10 07:39:15;;;;;;;10.23;6.13;;;19.50;99.90;;;;;;5018448;28;20648;-78
2022/05/10 07:41:42;;;;;;;12.98;7.28;;;19.70;99.90;;;;;;5037823;28;20210;-79
2022/05/10 07:44:10;;;;;;;8.23;5.40;;;19.90;99.90;;;;;;5042008;28;20876;-78
2022/05/10 07:46:37;;;;;;;11.55;5.63;;;20.10;99.90;;;;;;5039800;28;20233;-79
2022/05/10 07:49:04;;;;;;;10.32;6.00;;;20.30;99.90;;;;;;5040095;28;20233;-79
2022/05/10 07:51:33;;;;;;;8.35;5.72;;;20.50;99.90;;;;;;5042002;28;20221;-79
2022/05/10 07:54:01;;;;;;;9.93;5.15;;;20.60;99.90;;;;;;5037387;28;20233;-79
2022/05/10 07:56:28;;;;;;;7.03;5.00;;;20.70;99.90;;;;;;5042522;28;20324;-79
2022/05/10 07:58:56;;;;;;;7.47;4.15;;;20.80;99.90;;;;;;5043064;28;20248;-79
2022/05/10 08:01:24;;;;;;;10.43;5.45;;;20.90;99.90;;;;;;5043092;28;20198;-81
2022/05/10 08:03:51;;;;;;;11.13;5.88;;;20.90;99.90;;;;;;5041919;28;20237;-78
2022/05/10 08:06:18;;;;;;;10.05;5.15;;;21.00;99.90;;;;;;5024667;28;20202;-79
2022/05/10 08:08:46;;;;;;;7.85;4.78;;;21.10;99.90;;;;;;5023553;28;20206;-81
2022/05/10 08:11:14;;;;;;;9.55;4.53;;;21.20;99.90;;;;;;5038417;28;20567;-80
2022/05/10 08:13:41;;;;;;;7.50;4.68;;;21.30;99.90;;;;;;5043878;28;20553;-79
2022/05/10 08:16:09;;;;;;;11.00;4.38;;;21.40;99.90;;;;;;5034614;28;20234;-79
2022/05/10 08:18:37;;;;;;;10.38;3.75;;;21.50;99.90;;;;;;5022975;28;20261;-79
2022/05/10 08:21:05;;;;;;;8.25;4.65;;;21.70;99.90;;;;;;5023483;28;20203;-80
2022/05/10 08:23:35;;;;;;;8.75;4.00;;;21.80;99.90;;;;;;5025478;28;20295;-79
2022/05/10 08:26:05;;;;;;;9.73;3.88;;;22.00;99.90;;;;;;5042431;28;20286;-80
2022/05/10 08:28:34;;;;;;;8.35;3.40;;;22.10;99.90;;;;;;5043250;28;20206;-80
2022/05/10 08:31:02;;;;;;;7.90;3.78;;;22.30;99.90;;;;;;5041079;28;20214;-80
2022/05/10 08:33:31;;;;;;;6.40;4.00;;;22.50;99.90;;;;;;5045350;28;20568;-78
2022/05/10 08:35:58;;;;;;;12.38;4.10;;;22.70;99.90;;;;;;5047287;28;20229;-78
2022/05/10 08:38:26;;;;;;;8.80;3.65;;;22.80;99.90;;;;;;5046120;28;20602;-80
2022/05/10 08:40:57;;;;;;;10.48;4.20;;;22.90;99.90;;;;;;5044962;28;20205;-84
2022/05/10 08:43:29;;;;;;;12.75;4.80;;;23.00;99.90;;;;;;5047982;28;20191;-80
2022/05/10 08:45:56;;;;;;;8.00;4.25;;;22.90;99.90;;;;;;5046994;28;20205;-81
2022/05/10 08:48:28;;;;;;;12.07;4.93;;;22.90;99.90;;;;;;5041915;28;20203;-79
2022/05/10 08:50:56;;;;;;;10.00;4.30;;;22.80;99.90;;;;;;5047282;28;20224;-80
2022/05/10 08:53:23;;;;;;;11.15;4.55;;;22.60;99.90;;;;;;5044765;28;20202;-81
2022/05/10 08:55:55;;;;;;;7.13;4.32;;;22.60;99.90;;;;;;5027842;28;20233;-80
2022/05/10 08:58:55;;;;;;;13.27;4.53;;;22.50;99.90;;;;;;5027102;28;20213;-79
2022/05/10 09:01:26;;;;;;;13.85;5.50;;;22.50;99.90;;;;;;5038996;28;20221;-80
2022/05/10 09:03:59;;;;;;;12.75;5.25;;;22.50;99.90;;;;;;5041697;28;20554;-80
2022/05/10 09:06:37;;;;;;;12.70;5.95;;;22.60;99.90;;;;;;5048954;28;20190;-79
2022/05/10 09:09:17;;;;;;;11.10;5.10;;;22.80;99.90;;;;;;5030381;28;20205;-81
2022/05/10 09:11:52;;;;;;;15.85;5.45;;;23.00;99.90;;;;;;5027110;28;20281;-80
2022/05/10 09:14:27;;;;;;;16.38;6.07;;;23.10;99.90;;;;;;5026233;28;20272;-79
2022/05/10 09:16:55;;;;;;;19.35;5.78;;;23.20;99.90;;;;;;5045182;28;20232;-81
2022/05/10 09:19:37;;;;;;;13.10;5.35;;;23.10;99.90;;;;;;5047940;28;20233;-81
2022/05/10 09:22:15;;;;;;;11.05;5.65;;;23.10;99.90;;;;;;5047284;28;20221;-82
2022/05/10 09:24:50;;;;;;;12.73;5.63;;;22.90;99.90;;;;;;5046846;28;20316;-84
2022/05/10 09:27:19;;;;;;;10.70;6.13;;;22.90;99.90;;;;;;5046591;28;20269;-84
2022/05/10 09:29:50;;;;;;;12.85;5.80;;;23.00;99.90;;;;;;5046885;28;20938;-82
2022/05/10 09:35:12;;;;;;;15.57;6.60;;;23.30;99.90;;;;;;5041495;28;20220;-80
2022/05/10 09:37:44;;;;;;;12.52;6.63;;;23.60;99.90;;;;;;5030123;28;20293;-80
2022/05/10 09:40:26;;;;;;;10.38;5.85;;;23.60;99.90;;;;;;5035465;28;20299;-79
2022/05/10 09:43:10;;;;;;;8.70;5.60;;;23.60;99.90;;;;;;5044776;28;20228;-81
2022/05/10 09:45:39;;;;;;;9.90;5.45;;;23.20;99.90;;;;;;5025932;28;20206;-80
2022/05/10 09:48:15;;;;;;;8.98;6.13;;;23.10;99.90;;;;;;5025087;28;20203;-80
2022/05/10 09:50:44;;;;;;;11.60;5.70;;;23.00;99.90;;;;;;5026783;28;20521;-79
2022/05/10 09:53:18;;;;;;;13.90;5.80;;;22.70;99.90;;;;;;5043787;28;20205;-78
2022/05/10 09:55:57;;;;;;;10.43;5.90;;;22.70;99.90;;;;;;5046467;28;20224;-79
2022/05/10 09:58:28;;;;;;;11.90;5.72;;;22.60;99.90;;;;;;5046454;28;20681;-80
2022/05/10 10:00:58;;;;;;;12.25;5.60;;;22.70;99.90;;;;;;5046283;28;20314;-79
2022/05/10 10:03:27;;;;;;;16.00;6.03;;;22.80;99.90;;;;;;5045489;28;20285;-79
2022/05/10 10:05:56;;;;;;;9.77;5.75;;;22.90;99.90;;;;;;5043809;28;20209;-82
2022/05/10 10:08:39;;;;;;;9.65;5.80;;;22.90;99.90;;;;;;5026509;28;20256;-83
2022/05/10 10:11:12;;;;;;;13.23;5.13;;;22.90;99.90;;;;;;5023486;28;20233;-80
2022/05/10 10:13:41;;;;;;;12.15;6.05;;;23.00;99.90;;;;;;5037688;28;20212;-79
2022/05/10 10:16:17;;;;;;;14.90;6.40;;;22.80;99.90;;;;;;5045140;28;20593;-79
2022/05/10 10:18:47;;;;;;;10.23;4.72;;;22.70;99.90;;;;;;5044920;28;20207;-78
2022/05/10 10:21:18;;;;;;;13.73;5.60;;;22.90;99.90;;;;;;5045443;28;20313;-82
2022/05/10 10:23:51;;;;;;;9.13;4.90;;;23.00;99.90;;;;;;5044896;28;20301;-81
2022/05/10 10:26:25;;;;;;;10.60;5.10;;;23.30;99.90;;;;;;5044438;28;20198;-81
2022/05/10 10:29:00;;;;;;;14.75;5.28;;;23.40;99.90;;;;;;5045043;28;20248;-80
2022/05/10 10:31:34;;;;;;;11.57;4.00;;;23.70;99.90;;;;;;5046473;28;20289;-80
2022/05/10 10:34:06;;;;;;;14.55;4.30;;;23.90;99.90;;;;;;5045926;28;20253;-80
2022/05/10 10:36:40;;;;;;;9.80;3.70;;;24.20;99.90;;;;;;5046508;28;20246;-81
2022/05/10 10:39:14;;;;;;;8.63;3.53;;;24.40;99.90;;;;;;5032486;28;20210;-80
2022/05/10 10:41:48;;;;;;;11.77;3.90;;;24.30;99.90;;;;;;5063964;23;20256;-79
2022/05/10 10:44:20;;;;;;;10.85;3.22;;;24.00;99.90;;;;;;5063123;28;20736;-79
2022/05/10 10:46:58;;;;;;;13.73;3.60;;;23.90;99.90;;;;;;5045399;28;20306;-80
2022/05/10 10:49:31;;;;;;;10.27;4.10;;;24.00;99.90;;;;;;5047116;28;20205;-84
2022/05/10 10:51:59;;;;;;;9.75;3.70;;;24.00;99.90;;;;;;5047774;28;20605;-83
2022/05/10 10:54:29;;;;;;;7.40;3.00;;;23.90;99.90;;;;;;5048131;28;20205;-83
2022/05/10 10:57:30;;;;;;;7.18;2.67;;;24.10;99.90;;;;;;5046672;28;20230;-83
2022/05/10 11:00:08;;;;;;;12.02;3.83;;;24.20;99.90;;;;;;5046903;28;20201;-82
2022/05/10 11:02:59;;;;;;;8.15;3.20;;;24.10;99.90;;;;;;5045602;28;20189;-81
2022/05/10 11:05:42;;;;;;;7.45;3.03;;;23.80;99.90;;;;;;5045230;28;20287;-80
2022/05/10 11:08:18;;;;;;;8.68;2.78;;;23.80;99.90;;;;;;5046361;28;20210;-82
2022/05/10 11:10:50;;;;;;;11.10;3.38;;;23.70;99.90;;;;;;5046502;28;20632;-84
2022/05/10 11:13:31;;;;;;;9.57;2.90;;;23.60;99.90;;;;;;5046642;28;20423;-81
2022/05/10 11:16:10;;;;;;;7.15;2.83;;;23.40;99.90;;;;;;5053768;28;20269;-81
2022/05/10 11:18:51;;;;;;;7.53;2.72;;;23.20;99.90;;;;;;5068104;28;20212;-82
2022/05/10 11:21:33;;;;;;;8.32;2.55;;;23.10;99.90;;;;;;5065206;28;20276;-83
2022/05/10 11:24:09;;;;;;;9.38;3.00;;;23.00;99.90;;;;;;5055306;28;20320;-82
2022/05/10 11:26:58;;;;;;;11.88;3.17;;;23.00;99.90;;;;;;5045721;28;20197;-85
2022/05/10 11:29:49;;;;;;;5.45;2.55;;;23.10;99.90;;;;;;5046692;28;20190;-82
2022/05/10 11:32:27;;;;;;;11.80;2.90;;;23.20;99.90;;;;;;5045750;28;20236;-82
2022/05/10 11:35:16;;;;;;;6.22;2.22;;;23.30;99.90;;;;;;5045711;28;20256;-81
2022/05/10 11:37:48;;;;;;;8.57;2.08;;;23.20;99.90;;;;;;5046190;28;20258;-81
2022/05/10 11:40:57;;;;;;;7.15;2.38;;;22.90;99.90;;;;;;5045549;28;20233;-83
2022/05/10 11:44:10;;;;;;;13.18;2.63;;;22.90;99.90;;;;;;5034514;28;20213;-87
2022/05/10 11:47:17;;;;;;;6.10;1.85;;;22.70;99.90;;;;;;4997980;28;20205;-82
2022/05/10 11:50:28;;;;;;;8.38;2.53;;;22.70;99.90;;;;;;5039777;28;20497;-81
2022/05/10 11:53:31;;;;;;;5.55;2.40;;;22.50;99.90;;;;;;4963751;28;20209;-81
2022/05/10 11:56:00;;;;;;;7.60;2.60;;;22.40;99.90;;;;;;4964216;28;20216;-81
2022/05/10 11:58:29;;;;;;;5.85;2.30;;;22.40;99.90;;;;;;5020586;28;20206;-82
2022/05/10 12:00:58;;;;;;;6.35;2.58;;;22.50;99.90;;;;;;5046189;28;20551;-82
2022/05/10 12:03:55;;;;;;;6.80;2.42;;;22.60;99.90;;;;;;5046300;28;20201;-82
2022/05/10 12:06:43;;;;;;;9.68;2.80;;;22.70;99.90;;;;;;5046398;28;20214;-82
2022/05/10 12:09:27;;;;;;;5.47;2.95;;;22.60;99.90;;;;;;5048814;28;20979;-81
2022/05/10 12:11:54;;;;;;;5.63;2.97;;;22.60;99.90;;;;;;5050369;28;20194;-84
2022/05/10 12:24:02;;;;;;;9.27;3.40;;;22.20;99.90;;;;;;5048428;28;20278;-84
2022/05/10 12:26:37;;;;;;;6.65;3.72;;;22.10;99.90;;;;;;5049442;28;20586;-81
2022/05/10 12:29:06;;;;;;;9.70;3.83;;;22.00;99.90;;;;;;5058791;22;20731;-85
2022/05/10 12:31:55;;;;;;;11.05;3.95;;;21.80;99.90;;;;;;5049172;28;20206;-83
2022/05/10 12:34:52;;;;;;;10.75;4.75;;;21.70;99.90;;;;;;5051799;28;20194;-83
2022/05/10 12:37:58;;;;;;;9.00;4.10;;;21.30;99.90;;;;;;5049419;28;20237;-83
2022/05/10 12:40:51;;;;;;;8.73;4.22;;;21.20;99.90;;;;;;5049205;28;20202;-80
2022/05/10 12:43:43;;;;;;;8.02;4.10;;;21.00;99.90;;;;;;5049027;28;20201;-82
2022/05/10 12:46:22;;;;;;;9.82;4.55;;;21.10;99.90;;;;;;5050889;28;20202;-82
2022/05/10 12:49:03;;;;;;;8.77;4.22;;;21.20;99.90;;;;;;5051451;28;20493;-88
2022/05/10 12:51:41;;;;;;;8.82;3.80;;;21.20;99.90;;;;;;5052558;28;20198;-87
2022/05/10 12:54:15;;;;;;;9.98;4.85;;;21.30;99.90;;;;;;5052382;28;20284;-87
2022/05/10 12:57:06;;;;;;;8.13;4.13;;;21.20;99.90;;;;;;5050719;28;20253;-81
2022/05/10 12:59:42;;;;;;;6.70;3.03;;;21.30;99.90;;;;;;5046974;28;20285;-85
2022/05/10 13:02:13;;;;;;;12.85;4.25;;;21.30;99.90;;;;;;5051334;28;20202;-82
2022/05/10 13:04:45;;;;;;;6.28;3.60;;;21.50;99.90;;;;;;5050771;28;20478;-91
2022/05/10 13:07:20;;;;;;;8.80;3.40;;;21.50;99.90;;;;;;5051955;28;20209;-86
2022/05/10 13:09:53;;;;;;;8.40;3.50;;;21.50;99.90;;;;;;5049838;28;20554;-83
2022/05/10 13:12:23;;;;;;;7.22;3.10;;;21.30;99.90;;;;;;5051211;28;20296;-92
2022/05/10 13:14:56;;;;;;;10.32;3.22;;;21.10;99.90;;;;;;5052030;28;20200;-81
2022/05/10 13:17:27;;;;;;;4.47;2.60;;;20.90;99.90;;;;;;5052088;28;20530;-85
2022/05/10 13:19:55;;;;;;;6.47;3.08;;;20.80;99.90;;;;;;5049846;28;20650;-87
2022/05/10 13:22:23;;;;;;;12.15;3.13;;;20.70;99.90;;;;;;5047872;28;20518;-85